Time;durP1;ratioP1;P1;durP2;ratioP2;P2;SDS_P1;SDS_P2;PMS_P1;PMS_P2;Temp;Humidity;BMP_temperature;BMP_pressure;BME280_temperature;BME280_humidity;BME280_pressure;Samples;Min_cycle;Max_cycle;Signal;HPM_P1;HPM_P2
2023/08/21 00:01:39;;;;;;;7.40;2.13;;;19.10;99.90;;;;;;5027077;28;20244;-59
2023/08/21 00:04:07;;;;;;;4.87;2.07;;;19.10;99.90;;;;;;5027642;28;20230;-59
2023/08/21 00:06:36;;;;;;;7.60;2.20;;;19.10;99.90;;;;;;5027928;28;20599;-59
2023/08/21 00:09:04;;;;;;;6.87;2.10;;;19.10;99.90;;;;;;5025776;28;20225;-59
2023/08/21 00:11:32;;;;;;;6.13;1.90;;;19.00;99.90;;;;;;5030132;28;20229;-58
2023/08/21 00:14:00;;;;;;;5.83;1.70;;;19.00;99.90;;;;;;5024197;28;20656;-59
2023/08/21 00:16:30;;;;;;;3.13;1.83;;;19.00;99.90;;;;;;5021614;28;20338;-59
2023/08/21 00:18:59;;;;;;;5.37;1.90;;;19.00;99.90;;;;;;5027608;28;20221;-59
2023/08/21 00:21:27;;;;;;;3.33;1.80;;;18.90;99.90;;;;;;5024461;28;20214;-59
2023/08/21 00:23:56;;;;;;;5.13;1.80;;;19.00;99.90;;;;;;5029627;28;20316;-58
2023/08/21 00:26:24;;;;;;;5.83;2.13;;;18.90;99.90;;;;;;5026730;28;20614;-58
2023/08/21 00:28:52;;;;;;;12.13;2.53;;;18.90;99.90;;;;;;5026168;28;20259;-59
2023/08/21 00:31:21;;;;;;;6.10;1.93;;;18.90;99.90;;;;;;5030490;28;20478;-59
2023/08/21 00:33:51;;;;;;;3.73;1.83;;;18.90;99.90;;;;;;5034064;28;20279;-58
2023/08/21 00:36:20;;;;;;;8.20;2.43;;;18.80;99.90;;;;;;5030053;28;20304;-58
2023/08/21 00:38:48;;;;;;;7.20;1.93;;;18.80;99.90;;;;;;5027875;28;20224;-58
2023/08/21 00:41:17;;;;;;;7.73;1.90;;;18.70;99.90;;;;;;5029123;28;20228;-58
2023/08/21 00:43:45;;;;;;;4.93;1.77;;;18.70;99.90;;;;;;5032694;28;20280;-58
2023/08/21 00:46:14;;;;;;;6.00;2.33;;;18.60;99.90;;;;;;5034540;28;20232;-58
2023/08/21 00:48:43;;;;;;;6.10;2.03;;;18.60;99.90;;;;;;5028505;28;20229;-59
2023/08/21 00:51:14;;;;;;;7.50;2.00;;;18.50;99.90;;;;;;5029493;28;20221;-59
2023/08/21 00:53:43;;;;;;;2.00;1.50;;;18.50;99.90;;;;;;5030039;28;20225;-59
2023/08/21 00:56:12;;;;;;;9.87;2.00;;;18.50;99.90;;;;;;5027474;28;20220;-58
2023/08/21 00:58:40;;;;;;;8.63;2.47;;;18.40;99.90;;;;;;5029579;28;20224;-59
2023/08/21 01:01:09;;;;;;;5.10;2.00;;;18.40;99.90;;;;;;5027964;28;20201;-58
2023/08/21 01:03:38;;;;;;;6.80;2.20;;;18.30;99.90;;;;;;5029755;28;20232;-58
2023/08/21 01:06:06;;;;;;;4.63;2.00;;;18.30;99.90;;;;;;5028811;28;20229;-59
2023/08/21 01:08:43;;;;;;;5.23;2.00;;;18.30;99.90;;;;;;5029264;28;20232;-59
2023/08/21 01:11:18;;;;;;;3.83;2.10;;;18.30;99.90;;;;;;5030340;28;20217;-59
2023/08/21 01:13:57;;;;;;;4.60;2.10;;;18.20;99.90;;;;;;5030544;28;20733;-59
2023/08/21 01:16:30;;;;;;;7.77;2.53;;;18.20;99.90;;;;;;5026691;28;20654;-58
2023/08/21 01:18:59;;;;;;;6.70;2.30;;;18.30;99.90;;;;;;5029434;28;20186;-59
2023/08/21 01:21:28;;;;;;;6.07;2.40;;;18.20;99.90;;;;;;5023975;28;20249;-59
2023/08/21 01:23:58;;;;;;;5.43;2.50;;;18.20;99.90;;;;;;5029754;28;20226;-57
2023/08/21 01:26:26;;;;;;;7.47;2.50;;;18.20;99.90;;;;;;5030668;28;20251;-58
2023/08/21 01:28:54;;;;;;;4.33;2.60;;;18.10;99.90;;;;;;5024446;28;20665;-58
2023/08/21 01:31:28;;;;;;;5.97;2.87;;;18.10;99.90;;;;;;5025867;28;20198;-57
2023/08/21 01:34:00;;;;;;;8.07;2.47;;;18.10;99.90;;;;;;5027740;28;20632;-58
2023/08/21 01:36:29;;;;;;;5.30;2.60;;;18.20;99.90;;;;;;5027363;28;20227;-59
2023/08/21 01:38:58;;;;;;;5.97;2.77;;;18.20;99.90;;;;;;5022843;28;20221;-59
2023/08/21 01:41:27;;;;;;;5.33;2.73;;;18.20;99.90;;;;;;5028444;28;20723;-59
2023/08/21 01:43:55;;;;;;;10.40;2.40;;;18.20;99.90;;;;;;5029630;28;20579;-60
2023/08/21 01:46:23;;;;;;;9.00;3.03;;;18.20;99.90;;;;;;5031110;28;20216;-57
2023/08/21 01:48:52;;;;;;;4.13;3.33;;;18.20;99.90;;;;;;5025908;28;20220;-59
2023/08/21 01:51:20;;;;;;;7.53;3.17;;;18.20;99.90;;;;;;5029256;28;20225;-59
2023/08/21 01:53:49;;;;;;;5.53;2.60;;;18.20;99.90;;;;;;5024603;28;20217;-58
2023/08/21 01:56:18;;;;;;;7.60;3.00;;;18.20;99.90;;;;;;5024053;28;20309;-59
2023/08/21 01:58:47;;;;;;;8.17;3.13;;;18.10;99.90;;;;;;5029040;28;20236;-61
2023/08/21 02:01:17;;;;;;;7.33;2.90;;;18.10;99.90;;;;;;5026793;28;20201;-59
2023/08/21 02:03:46;;;;;;;4.07;3.00;;;18.10;99.90;;;;;;5023523;28;20234;-59
2023/08/21 02:06:15;;;;;;;9.30;3.43;;;18.10;99.90;;;;;;5027074;28;20226;-59
2023/08/21 02:08:43;;;;;;;5.53;2.70;;;18.10;99.90;;;;;;5031204;28;20295;-59
2023/08/21 02:11:11;;;;;;;12.87;3.93;;;18.10;99.90;;;;;;5024579;28;20218;-59
2023/08/21 02:13:41;;;;;;;10.20;3.20;;;18.10;99.90;;;;;;5028212;28;20233;-59
2023/08/21 02:16:10;;;;;;;4.63;2.80;;;18.10;99.90;;;;;;5033104;28;20193;-60
2023/08/21 02:18:38;;;;;;;6.23;3.00;;;18.10;99.90;;;;;;5030536;28;20590;-59
2023/08/21 02:21:06;;;;;;;6.27;2.60;;;18.10;99.90;;;;;;5031702;28;20737;-59
2023/08/21 02:23:35;;;;;;;6.47;2.80;;;18.10;99.90;;;;;;5022298;28;20221;-59
2023/08/21 02:26:03;;;;;;;6.77;2.50;;;18.10;99.90;;;;;;5039315;28;20320;-59
2023/08/21 02:28:31;;;;;;;2.27;2.07;;;18.10;99.90;;;;;;5022378;28;20200;-59
2023/08/21 02:31:01;;;;;;;6.43;2.40;;;18.20;99.90;;;;;;5023442;28;20192;-58
2023/08/21 02:33:29;;;;;;;6.87;2.50;;;18.20;99.90;;;;;;5025497;28;20228;-58
2023/08/21 02:35:58;;;;;;;4.43;2.33;;;18.20;99.90;;;;;;5024865;28;20221;-58
2023/08/21 02:38:27;;;;;;;6.73;3.10;;;18.20;99.90;;;;;;5031027;28;20224;-59
2023/08/21 02:40:55;;;;;;;4.40;2.10;;;18.10;99.90;;;;;;5028473;28;20217;-59
2023/08/21 02:43:23;;;;;;;4.27;2.83;;;18.10;99.90;;;;;;5023240;28;20590;-59
2023/08/21 02:45:52;;;;;;;7.30;2.53;;;18.10;99.90;;;;;;5031796;28;20200;-59
2023/08/21 02:48:21;;;;;;;6.37;2.40;;;18.10;99.90;;;;;;5025595;28;20221;-58
2023/08/21 02:50:50;;;;;;;4.60;2.40;;;18.10;99.90;;;;;;5027533;28;20221;-58
2023/08/21 02:53:18;;;;;;;3.23;2.40;;;18.10;99.90;;;;;;5028135;28;20221;-58
2023/08/21 02:55:47;;;;;;;7.47;2.50;;;18.10;99.90;;;;;;5027926;28;20231;-58
2023/08/21 02:58:15;;;;;;;4.60;2.50;;;18.10;99.90;;;;;;5030319;28;20185;-59
2023/08/21 03:00:44;;;;;;;5.80;2.80;;;18.10;99.90;;;;;;5017849;28;20230;-58
2023/08/21 03:03:12;;;;;;;6.03;2.50;;;18.10;99.90;;;;;;5027930;28;20304;-58
2023/08/21 03:05:43;;;;;;;4.77;2.77;;;18.00;99.90;;;;;;5024639;28;20693;-58
2023/08/21 03:08:11;;;;;;;5.23;2.50;;;18.00;99.90;;;;;;5029209;28;20229;-58
2023/08/21 03:10:39;;;;;;;10.93;2.43;;;18.00;99.90;;;;;;5023804;28;20225;-59
2023/08/21 03:13:08;;;;;;;6.43;2.17;;;17.90;99.90;;;;;;5028145;28;20196;-59
2023/08/21 03:15:36;;;;;;;6.50;2.33;;;17.90;99.90;;;;;;5029347;28;20240;-58
2023/08/21 03:18:05;;;;;;;10.83;2.73;;;17.90;99.90;;;;;;5028093;28;20244;-58
2023/08/21 03:20:33;;;;;;;6.83;2.50;;;17.80;99.90;;;;;;5028739;28;20233;-59
2023/08/21 03:23:03;;;;;;;7.97;2.93;;;17.80;99.90;;;;;;5026888;28;20225;-59
2023/08/21 03:25:31;;;;;;;7.87;2.20;;;17.80;99.90;;;;;;5024790;28;20197;-59
2023/08/21 03:28:00;;;;;;;5.37;2.33;;;17.80;99.90;;;;;;5028471;28;20201;-59
2023/08/21 03:30:28;;;;;;;8.53;2.83;;;17.80;99.90;;;;;;5028610;28;20226;-59
2023/08/21 03:32:56;;;;;;;6.33;2.53;;;17.70;99.90;;;;;;5032073;28;20217;-59
2023/08/21 03:35:25;;;;;;;11.30;2.77;;;17.70;99.90;;;;;;5028459;28;20255;-59
2023/08/21 03:37:53;;;;;;;7.17;2.33;;;17.70;99.90;;;;;;5028182;28;20248;-59
2023/08/21 03:40:23;;;;;;;6.40;2.70;;;17.70;99.90;;;;;;5026385;28;20198;-59
2023/08/21 03:42:51;;;;;;;9.80;2.50;;;17.70;99.90;;;;;;5027909;28;20193;-59
2023/08/21 03:45:19;;;;;;;5.00;2.53;;;17.70;99.90;;;;;;5027184;28;20232;-59
2023/08/21 03:47:48;;;;;;;9.30;2.80;;;17.70;99.90;;;;;;5021520;28;20287;-58
2023/08/21 03:50:16;;;;;;;3.70;2.43;;;17.70;99.90;;;;;;5028338;28;20626;-58
2023/08/21 03:52:45;;;;;;;7.83;2.50;;;17.70;99.90;;;;;;5026985;28;20228;-58
2023/08/21 03:55:13;;;;;;;4.97;2.50;;;17.70;99.90;;;;;;5019807;28;20224;-59
2023/08/21 03:57:43;;;;;;;7.60;2.87;;;17.70;99.90;;;;;;5024237;28;20228;-58
2023/08/21 04:00:12;;;;;;;6.57;2.63;;;17.70;99.90;;;;;;5026553;28;20216;-58
2023/08/21 04:02:40;;;;;;;7.60;2.70;;;17.70;99.90;;;;;;5026951;28;20303;-58
2023/08/21 04:05:10;;;;;;;6.33;2.43;;;17.70;99.90;;;;;;5023923;28;20213;-58
2023/08/21 04:07:39;;;;;;;7.03;2.90;;;17.70;99.90;;;;;;5036393;28;20233;-58
2023/08/21 04:10:08;;;;;;;8.33;3.17;;;17.70;99.90;;;;;;5026308;28;20194;-59
2023/08/21 04:12:36;;;;;;;9.80;2.83;;;17.70;99.90;;;;;;5022348;28;20221;-58
2023/08/21 04:15:08;;;;;;;6.47;2.93;;;17.60;99.90;;;;;;5027382;28;20225;-58
2023/08/21 04:17:37;;;;;;;7.80;3.00;;;17.60;99.90;;;;;;5023173;28;20226;-58
2023/08/21 04:20:06;;;;;;;9.00;3.07;;;17.60;99.90;;;;;;5031066;28;20271;-59
2023/08/21 04:22:34;;;;;;;10.83;3.93;;;17.50;99.90;;;;;;5017963;28;20196;-57
2023/08/21 04:25:05;;;;;;;6.77;3.03;;;17.50;99.90;;;;;;5021358;28;20643;-58
2023/08/21 04:27:34;;;;;;;6.80;3.00;;;17.40;99.90;;;;;;5024618;28;20335;-59
2023/08/21 04:30:02;;;;;;;9.07;3.57;;;17.40;99.90;;;;;;5022983;28;20750;-58
2023/08/21 04:32:32;;;;;;;13.77;3.40;;;17.40;99.90;;;;;;5023872;28;20218;-59
2023/08/21 04:35:01;;;;;;;5.47;2.93;;;17.30;99.90;;;;;;5028680;28;20228;-58
2023/08/21 04:37:29;;;;;;;6.73;3.20;;;17.30;99.90;;;;;;5029271;28;20192;-59
2023/08/21 04:39:57;;;;;;;7.03;3.67;;;17.30;99.90;;;;;;5030555;28;20284;-59
2023/08/21 04:42:25;;;;;;;12.97;3.77;;;17.30;99.90;;;;;;5027622;28;20213;-58
2023/08/21 04:44:54;;;;;;;7.73;3.70;;;17.30;99.90;;;;;;5031837;28;20210;-58
2023/08/21 04:47:23;;;;;;;9.47;3.53;;;17.20;99.90;;;;;;5026241;28;20585;-58
2023/08/21 04:49:55;;;;;;;9.47;4.07;;;17.20;99.90;;;;;;5031542;28;20233;-59
2023/08/21 04:52:24;;;;;;;8.83;3.90;;;17.20;99.90;;;;;;5033812;28;20198;-59
2023/08/21 04:54:53;;;;;;;5.13;4.00;;;17.20;99.90;;;;;;5027718;28;20308;-58
2023/08/21 04:57:21;;;;;;;9.00;4.57;;;17.20;99.90;;;;;;5032287;28;20737;-58
2023/08/21 04:59:50;;;;;;;9.57;3.90;;;17.20;99.90;;;;;;5029313;28;20309;-58
2023/08/21 05:02:18;;;;;;;5.43;3.80;;;17.20;99.90;;;;;;5021515;28;20229;-58
2023/08/21 05:04:46;;;;;;;6.33;4.07;;;17.20;99.90;;;;;;5028539;28;20233;-58
2023/08/21 05:07:16;;;;;;;11.83;4.83;;;17.20;99.90;;;;;;5030766;28;20205;-58
2023/08/21 05:09:44;;;;;;;12.50;4.27;;;17.30;99.90;;;;;;5029899;28;20299;-60
2023/08/21 05:12:12;;;;;;;11.37;4.47;;;17.30;99.90;;;;;;5028599;28;20240;-58
2023/08/21 05:14:42;;;;;;;8.43;4.47;;;17.30;99.90;;;;;;5025619;28;20233;-59
2023/08/21 05:17:11;;;;;;;12.43;5.03;;;17.30;99.90;;;;;;5031837;28;20663;-58
2023/08/21 05:19:39;;;;;;;14.53;5.07;;;17.30;99.90;;;;;;5026152;28;20225;-58
2023/08/21 05:22:08;;;;;;;8.40;4.57;;;17.30;99.90;;;;;;5031404;28;20205;-58
2023/08/21 05:24:38;;;;;;;9.87;4.93;;;17.40;99.90;;;;;;5029849;28;20224;-59
2023/08/21 05:27:06;;;;;;;9.40;4.80;;;17.40;99.90;;;;;;5027855;28;20689;-59
2023/08/21 05:29:35;;;;;;;6.47;4.80;;;17.40;99.90;;;;;;5028996;28;20233;-59
2023/08/21 05:32:04;;;;;;;8.17;5.37;;;17.40;99.90;;;;;;5031433;28;20245;-59
2023/08/21 05:34:33;;;;;;;13.23;5.40;;;17.50;99.90;;;;;;5025536;28;20209;-59
2023/08/21 05:37:01;;;;;;;10.20;5.10;;;17.50;99.90;;;;;;5031165;28;20198;-58
2023/08/21 05:39:30;;;;;;;7.97;5.03;;;17.60;99.90;;;;;;5041647;28;20224;-58
2023/08/21 05:42:00;;;;;;;14.27;6.03;;;17.60;99.90;;;;;;5030173;28;20241;-58
2023/08/21 05:44:28;;;;;;;13.93;5.87;;;17.70;99.90;;;;;;5026634;28;20576;-59
2023/08/21 05:46:57;;;;;;;11.60;5.20;;;17.80;99.90;;;;;;5026818;28;20346;-59
2023/08/21 05:49:25;;;;;;;12.63;5.30;;;17.80;99.90;;;;;;5029183;28;20655;-59
2023/08/21 05:51:58;;;;;;;10.77;5.90;;;18.00;99.90;;;;;;5030427;28;20596;-59
2023/08/21 05:54:28;;;;;;;12.33;5.80;;;18.10;99.90;;;;;;5029748;28;20225;-59
2023/08/21 05:56:56;;;;;;;10.77;5.90;;;18.30;99.90;;;;;;5028435;28;20221;-59
2023/08/21 05:59:33;;;;;;;11.37;5.70;;;18.40;99.90;;;;;;5030926;28;20228;-59
2023/08/21 06:02:02;;;;;;;8.00;5.47;;;18.50;99.90;;;;;;5027442;28;20599;-59
2023/08/21 06:04:30;;;;;;;11.80;6.47;;;18.60;99.90;;;;;;5031438;28;20228;-59
2023/08/21 06:06:58;;;;;;;15.97;6.63;;;18.70;99.90;;;;;;5029532;28;20271;-60
2023/08/21 06:09:29;;;;;;;7.07;5.03;;;18.80;99.90;;;;;;5024267;28;20317;-59
2023/08/21 06:11:57;;;;;;;13.87;5.33;;;18.70;99.90;;;;;;5029126;28;20227;-58
2023/08/21 06:14:28;;;;;;;18.00;6.00;;;18.60;99.90;;;;;;5024169;28;20217;-59
2023/08/21 06:17:00;;;;;;;12.53;6.37;;;18.60;99.90;;;;;;5028766;28;20283;-58
2023/08/21 06:19:28;;;;;;;8.90;5.40;;;18.70;99.90;;;;;;5025914;28;20201;-59
2023/08/21 06:21:57;;;;;;;13.83;6.47;;;18.80;99.90;;;;;;5019879;28;20394;-59
2023/08/21 06:24:25;;;;;;;14.60;6.33;;;18.90;99.90;;;;;;5028609;28;20223;-59
2023/08/21 06:26:54;;;;;;;17.77;7.40;;;19.10;99.90;;;;;;5022347;28;20217;-59
2023/08/21 06:29:22;;;;;;;12.00;6.53;;;19.10;99.90;;;;;;5025340;28;20573;-59
2023/08/21 06:31:50;;;;;;;19.30;7.37;;;19.20;99.90;;;;;;5021669;28;20224;-59
2023/08/21 06:34:20;;;;;;;13.97;6.80;;;19.30;99.90;;;;;;5027501;28;20796;-58
2023/08/21 06:36:49;;;;;;;17.90;8.20;;;19.40;99.90;;;;;;5024656;28;20232;-59
2023/08/21 06:39:17;;;;;;;14.60;7.50;;;19.50;99.90;;;;;;5026415;28;20729;-58
2023/08/21 06:41:45;;;;;;;13.73;6.77;;;19.50;99.90;;;;;;5025937;28;20217;-58
2023/08/21 06:44:14;;;;;;;21.93;7.63;;;19.60;99.90;;;;;;5023984;28;20217;-59
2023/08/21 06:46:43;;;;;;;10.57;6.67;;;19.60;99.90;;;;;;5026632;28;20680;-59
2023/08/21 06:49:11;;;;;;;15.60;7.00;;;19.80;99.90;;;;;;5019654;28;20204;-59
2023/08/21 06:51:41;;;;;;;21.77;7.40;;;19.90;99.90;;;;;;5026171;28;20580;-58
2023/08/21 06:54:09;;;;;;;16.47;6.93;;;20.00;99.90;;;;;;5024843;28;20221;-58
2023/08/21 06:56:38;;;;;;;15.67;7.30;;;20.10;99.90;;;;;;5027689;28;20229;-58
2023/08/21 06:59:06;;;;;;;18.07;7.40;;;20.20;99.90;;;;;;5030071;28;20702;-58
2023/08/21 07:01:36;;;;;;;14.23;7.13;;;20.30;99.90;;;;;;5027990;28;20227;-59
2023/08/21 07:04:04;;;;;;;18.60;7.63;;;20.40;99.90;;;;;;5027804;28;20236;-58
2023/08/21 07:06:33;;;;;;;18.67;7.73;;;20.50;99.90;;;;;;5025061;28;20779;-58
2023/08/21 07:09:04;;;;;;;15.67;7.57;;;20.50;99.90;;;;;;5028434;28;20217;-59
2023/08/21 07:11:32;;;;;;;19.30;8.30;;;20.60;99.90;;;;;;5024665;28;20221;-58
2023/08/21 07:14:00;;;;;;;15.63;8.13;;;20.60;99.90;;;;;;5025129;28;20228;-59
2023/08/21 07:16:29;;;;;;;17.93;7.73;;;20.60;99.90;;;;;;5030418;28;20212;-58
2023/08/21 07:18:57;;;;;;;14.33;7.23;;;20.70;99.90;;;;;;5027265;28;20743;-58
2023/08/21 07:21:26;;;;;;;18.43;7.50;;;20.80;99.90;;;;;;5029492;28;20882;-59
2023/08/21 07:24:03;;;;;;;15.33;7.30;;;21.00;99.90;;;;;;5027673;28;20336;-59
2023/08/21 07:26:32;;;;;;;20.70;7.90;;;21.10;99.90;;;;;;5025587;28;20309;-59
2023/08/21 07:29:01;;;;;;;13.93;7.50;;;21.20;99.90;;;;;;5031381;28;20902;-59
2023/08/21 07:31:29;;;;;;;18.70;8.07;;;21.20;99.90;;;;;;5027931;28;20193;-59
2023/08/21 07:33:57;;;;;;;14.97;7.37;;;21.30;99.90;;;;;;5026283;28;20656;-59
2023/08/21 07:36:35;;;;;;;13.37;6.90;;;21.30;99.90;;;;;;5039900;28;20871;-60
2023/08/21 07:39:05;;;;;;;21.33;7.70;;;21.30;99.90;;;;;;5026547;28;20648;-59
2023/08/21 07:41:34;;;;;;;14.97;6.70;;;21.40;99.90;;;;;;5025496;28;20230;-59
2023/08/21 07:44:03;;;;;;;13.97;6.50;;;21.50;99.90;;;;;;5029353;28;20218;-58
2023/08/21 07:46:31;;;;;;;12.23;6.80;;;21.70;99.90;;;;;;5030121;28;20678;-59
2023/08/21 07:48:59;;;;;;;16.73;7.00;;;21.80;99.90;;;;;;5026121;28;20208;-59
2023/08/21 07:51:28;;;;;;;13.57;6.30;;;22.00;99.90;;;;;;5024266;28;20652;-58
2023/08/21 07:53:56;;;;;;;19.00;7.00;;;22.10;99.90;;;;;;5025974;28;20676;-60
2023/08/21 07:56:29;;;;;;;18.23;6.43;;;22.20;99.90;;;;;;5019986;28;20215;-59
2023/08/21 07:58:59;;;;;;;15.73;6.60;;;22.40;99.90;;;;;;5024840;28;20230;-59
2023/08/21 08:01:28;;;;;;;10.03;6.83;;;22.40;99.90;;;;;;5025261;28;20200;-59
2023/08/21 08:03:57;;;;;;;12.23;6.83;;;22.30;99.90;;;;;;5026133;28;20234;-59
2023/08/21 08:06:25;;;;;;;12.33;6.53;;;22.30;99.90;;;;;;5023697;28;20220;-58
2023/08/21 08:08:54;;;;;;;11.53;6.43;;;22.20;99.90;;;;;;5029547;28;20255;-58
2023/08/21 08:11:22;;;;;;;21.87;6.93;;;22.20;99.90;;;;;;5028202;28;20230;-58
2023/08/21 08:13:52;;;;;;;16.47;6.87;;;22.10;99.90;;;;;;5035688;28;20222;-59
2023/08/21 08:16:20;;;;;;;10.63;5.63;;;22.10;99.90;;;;;;5030204;28;20208;-58
2023/08/21 08:18:48;;;;;;;15.73;6.83;;;22.00;99.90;;;;;;5032657;28;20296;-59
2023/08/21 08:21:17;;;;;;;14.47;7.20;;;22.00;99.90;;;;;;5029227;28;20812;-58
2023/08/21 08:23:46;;;;;;;16.40;7.07;;;22.10;99.90;;;;;;5026781;28;20666;-59
2023/08/21 08:26:14;;;;;;;16.47;6.90;;;22.30;99.90;;;;;;5028697;28;20222;-59
2023/08/21 08:28:43;;;;;;;10.53;5.50;;;22.40;99.90;;;;;;5027136;28;20252;-58
2023/08/21 08:31:17;;;;;;;14.37;5.87;;;22.50;99.90;;;;;;5028524;28;20219;-58
2023/08/21 08:33:46;;;;;;;12.70;5.40;;;22.70;99.90;;;;;;5030099;28;20212;-60
2023/08/21 08:36:14;;;;;;;6.30;3.60;;;22.90;99.90;;;;;;5024645;28;20228;-59
2023/08/21 08:38:43;;;;;;;10.77;4.27;;;22.90;99.90;;;;;;5028964;28;20222;-59
2023/08/21 08:41:17;;;;;;;13.77;5.17;;;23.10;99.90;;;;;;5027345;28;20224;-59
2023/08/21 08:43:47;;;;;;;14.97;6.93;;;23.20;99.90;;;;;;5029670;28;20339;-59
2023/08/21 08:46:17;;;;;;;16.53;6.37;;;23.30;99.90;;;;;;5026826;28;20200;-59
2023/08/21 08:48:46;;;;;;;12.73;6.40;;;23.60;99.90;;;;;;5029658;28;20843;-59
2023/08/21 08:51:15;;;;;;;11.40;5.00;;;23.70;99.90;;;;;;5026460;28;20253;-60
2023/08/21 08:53:45;;;;;;;12.87;6.33;;;23.70;99.90;;;;;;5028626;28;20248;-59
2023/08/21 08:56:13;;;;;;;16.43;6.47;;;23.70;99.90;;;;;;5025878;28;20221;-59
2023/08/21 08:58:42;;;;;;;13.67;5.77;;;23.80;99.90;;;;;;5023994;28;20237;-58
2023/08/21 09:01:12;;;;;;;13.17;5.80;;;24.00;99.90;;;;;;5028071;28;20194;-59
2023/08/21 09:03:42;;;;;;;12.52;5.15;;;24.20;99.90;;;;;;5024684;28;20269;-59
2023/08/21 09:06:10;;;;;;;11.23;6.53;;;24.40;99.90;;;;;;5024715;28;20227;-59
2023/08/21 09:08:38;;;;;;;17.15;6.32;;;24.60;99.90;;;;;;5024725;28;20227;-59
2023/08/21 09:11:07;;;;;;;9.73;5.28;;;24.50;99.90;;;;;;5028337;28;20569;-60
2023/08/21 09:13:35;;;;;;;9.98;5.47;;;24.40;99.90;;;;;;5027228;28;20200;-59
2023/08/21 09:16:06;;;;;;;13.13;5.80;;;24.30;99.90;;;;;;5027658;28;20198;-59
2023/08/21 09:18:35;;;;;;;11.88;5.32;;;24.20;99.90;;;;;;5023967;28;20228;-60
2023/08/21 09:21:08;;;;;;;10.43;5.00;;;24.30;99.90;;;;;;5026949;28;20226;-59
2023/08/21 09:23:40;;;;;;;11.60;4.68;;;24.50;99.90;;;;;;5025911;28;20228;-60
2023/08/21 09:26:08;;;;;;;9.88;5.00;;;24.60;99.90;;;;;;5019348;28;20227;-60
2023/08/21 09:28:36;;;;;;;11.45;4.63;;;24.70;99.90;;;;;;5028182;28;20282;-60
2023/08/21 09:31:05;;;;;;;4.20;3.45;;;24.70;99.90;;;;;;5044208;28;20201;-60
2023/08/21 09:33:35;;;;;;;12.15;4.10;;;24.80;99.90;;;;;;5019333;28;20231;-59
2023/08/21 09:36:05;;;;;;;10.63;4.57;;;24.90;99.90;;;;;;5021790;28;20228;-60
2023/08/21 09:38:36;;;;;;;6.97;3.00;;;25.20;99.90;;;;;;5024200;28;20236;-60
2023/08/21 09:41:04;;;;;;;11.23;4.38;;;25.50;99.90;;;;;;5019063;28;20739;-60
2023/08/21 09:43:33;;;;;;;9.95;3.92;;;25.80;99.90;;;;;;5026570;28;20207;-59
2023/08/21 09:46:03;;;;;;;6.88;2.85;;;25.90;99.90;;;;;;5025967;28;20198;-59
2023/08/21 09:48:32;;;;;;;5.63;3.28;;;25.90;99.90;;;;;;5021230;28;20229;-60
2023/08/21 09:51:04;;;;;;;5.97;3.30;;;25.90;99.90;;;;;;5032872;28;20586;-59
2023/08/21 09:53:33;;;;;;;8.05;3.75;;;26.10;99.90;;;;;;5024374;28;20248;-60
2023/08/21 09:56:04;;;;;;;6.95;2.97;;;26.40;99.90;;;;;;5026067;28;20283;-60
2023/08/21 09:58:32;;;;;;;6.95;2.70;;;26.70;99.90;;;;;;5030349;28;20556;-60
2023/08/21 10:01:02;;;;;;;5.65;2.78;;;27.20;99.90;;;;;;5024553;28;20668;-60
2023/08/21 10:03:32;;;;;;;6.50;2.97;;;27.30;99.90;;;;;;5023913;28;20245;-60
2023/08/21 10:06:02;;;;;;;3.42;2.13;;;27.50;99.90;;;;;;5019494;28;20226;-60
2023/08/21 10:08:32;;;;;;;6.32;2.70;;;27.80;99.90;;;;;;5023356;28;20234;-60
2023/08/21 10:11:02;;;;;;;3.40;2.25;;;27.80;99.90;;;;;;5023838;28;20220;-60
2023/08/21 10:13:33;;;;;;;4.75;2.58;;;27.90;99.90;;;;;;5023956;28;20692;-60
2023/08/21 10:16:02;;;;;;;5.03;1.90;;;28.10;99.90;;;;;;5026346;28;20193;-59
2023/08/21 10:18:35;;;;;;;3.85;1.63;;;28.10;99.90;;;;;;5025337;28;20232;-60
2023/08/21 10:21:13;;;;;;;4.03;1.77;;;28.30;99.90;;;;;;5026402;28;20221;-60
2023/08/21 10:23:42;;;;;;;1.77;1.27;;;28.50;99.90;;;;;;5026390;28;20653;-61
2023/08/21 10:26:15;;;;;;;3.83;1.52;;;28.60;99.90;;;;;;5026219;28;20637;-61
2023/08/21 10:28:51;;;;;;;2.97;1.60;;;28.90;99.90;;;;;;5022343;28;20232;-58
2023/08/21 10:31:31;;;;;;;3.60;2.13;;;29.40;99.90;;;;;;5020774;28;20501;-60
2023/08/21 10:34:01;;;;;;;2.42;1.65;;;29.70;99.90;;;;;;5028233;28;20277;-61
2023/08/21 10:36:39;;;;;;;1.42;1.30;;;30.00;99.90;;;;;;5021702;28;20221;-60
2023/08/21 10:39:16;;;;;;;1.63;1.35;;;29.80;99.90;;;;;;5026521;28;20228;-60
2023/08/21 10:41:56;;;;;;;2.00;1.50;;;30.00;99.90;;;;;;5027118;28;20225;-60
2023/08/21 10:44:38;;;;;;;3.00;1.63;;;30.10;99.90;;;;;;5024168;28;20229;-61
2023/08/21 10:47:17;;;;;;;2.58;1.42;;;30.30;99.90;;;;;;5023619;28;20705;-61
2023/08/21 10:49:47;;;;;;;2.80;1.30;;;30.70;99.90;;;;;;5028799;28;20879;-60
2023/08/21 10:52:20;;;;;;;1.48;1.25;;;30.90;99.90;;;;;;5025047;28;20205;-61
2023/08/21 10:54:50;;;;;;;3.67;1.77;;;30.90;99.90;;;;;;5046541;28;20217;-61
2023/08/21 10:57:20;;;;;;;3.10;1.80;;;30.60;99.90;;;;;;5040938;28;20572;-61
2023/08/21 10:59:56;;;;;;;2.50;1.65;;;30.70;99.90;;;;;;5042864;28;20229;-59
2023/08/21 11:02:26;;;;;;;3.28;1.60;;;30.70;99.90;;;;;;5045128;28;20235;-60
2023/08/21 11:04:54;;;;;;;1.52;1.40;;;30.80;99.90;;;;;;5040376;28;20678;-60
2023/08/21 11:07:23;;;;;;;1.80;1.70;;;31.00;99.90;;;;;;5038305;28;20576;-59
2023/08/21 11:09:52;;;;;;;4.38;1.70;;;31.20;99.90;;;;;;5042869;28;20193;-60
2023/08/21 11:12:23;;;;;;;1.70;1.60;;;31.40;99.90;;;;;;5046379;28;20225;-59
2023/08/21 11:14:52;;;;;;;3.85;1.92;;;31.20;99.90;;;;;;5042864;28;20225;-59
2023/08/21 11:17:23;;;;;;;3.03;1.77;;;31.10;99.90;;;;;;5026049;28;20245;-59
2023/08/21 11:19:51;;;;;;;4.25;1.70;;;31.00;99.90;;;;;;5039385;28;20224;-59
2023/08/21 11:22:20;;;;;;;2.88;1.70;;;30.90;99.90;;;;;;5036119;28;20197;-59
2023/08/21 11:24:50;;;;;;;2.08;1.60;;;30.80;99.90;;;;;;5046724;28;20189;-59
2023/08/21 11:27:20;;;;;;;0.95;0.95;;;31.00;99.90;;;;;;5042520;28;20219;-59
2023/08/21 11:29:54;;;;;;;0.73;0.73;;;30.90;99.90;;;;;;5046613;28;20258;-59
2023/08/21 11:32:23;;;;;;;1.00;1.00;;;30.90;99.90;;;;;;5045039;28;20213;-59
2023/08/21 11:34:54;;;;;;;1.45;1.23;;;30.70;99.90;;;;;;5045790;28;20235;-60
2023/08/21 11:37:23;;;;;;;1.42;1.20;;;30.70;99.90;;;;;;5045291;28;20189;-59
2023/08/21 11:39:54;;;;;;;1.23;1.13;;;31.20;99.90;;;;;;5036791;28;20228;-60
2023/08/21 11:42:29;;;;;;;1.27;1.00;;;31.10;99.90;;;;;;5042273;28;20535;-60
2023/08/21 11:45:00;;;;;;;1.23;1.10;;;31.10;99.90;;;;;;5047383;28;20212;-59
2023/08/21 11:47:32;;;;;;;1.50;1.40;;;31.30;99.90;;;;;;5049851;28;20290;-59
2023/08/21 11:50:05;;;;;;;1.60;1.17;;;31.20;99.90;;;;;;5047052;28;20237;-59
2023/08/21 11:52:38;;;;;;;2.70;1.27;;;31.20;99.90;;;;;;5043188;28;20537;-64
2023/08/21 11:55:10;;;;;;;1.30;1.20;;;31.00;99.90;;;;;;5036791;28;20189;-64
2023/08/21 11:57:49;;;;;;;1.10;1.10;;;30.50;99.90;;;;;;5027816;28;20224;-65
2023/08/21 12:00:30;;;;;;;2.00;1.20;;;30.60;99.90;;;;;;5038689;28;20231;-64
2023/08/21 12:03:00;;;;;;;1.48;1.00;;;30.70;99.90;;;;;;5045090;28;20228;-64
2023/08/21 12:05:29;;;;;;;0.93;0.93;;;30.70;99.90;;;;;;5045387;28;20217;-64
2023/08/21 12:07:57;;;;;;;1.10;1.10;;;30.60;99.90;;;;;;5041551;28;20234;-64
2023/08/21 12:10:26;;;;;;;1.70;1.52;;;30.50;99.90;;;;;;5039982;28;20273;-64
2023/08/21 12:12:55;;;;;;;2.35;1.40;;;30.30;99.90;;;;;;5042879;28;20276;-64
2023/08/21 12:15:24;;;;;;;2.05;1.20;;;30.00;99.90;;;;;;5043392;28;20224;-65
2023/08/21 12:17:53;;;;;;;3.67;1.40;;;29.90;99.90;;;;;;5046204;28;20225;-65
2023/08/21 12:20:22;;;;;;;2.00;1.48;;;29.80;99.90;;;;;;5042655;28;20267;-65
2023/08/21 12:22:50;;;;;;;1.70;1.33;;;29.60;99.90;;;;;;5041679;28;20236;-64
2023/08/21 12:25:18;;;;;;;3.25;1.60;;;29.40;99.90;;;;;;5046594;28;20673;-66
2023/08/21 12:27:47;;;;;;;2.95;1.65;;;29.30;99.90;;;;;;5041420;28;20221;-65
2023/08/21 12:30:29;;;;;;;2.47;2.25;;;29.30;99.90;;;;;;5046086;28;20223;-65
2023/08/21 12:32:58;;;;;;;1.58;1.55;;;29.30;99.90;;;;;;5045621;28;20228;-65
2023/08/21 12:35:44;;;;;;;2.00;1.90;;;29.30;99.90;;;;;;5033466;28;20232;-65
2023/08/21 12:38:13;;;;;;;1.80;1.70;;;29.30;99.90;;;;;;5041095;28;20236;-65
2023/08/21 12:40:41;;;;;;;2.10;1.70;;;29.20;99.90;;;;;;5043229;28;20227;-65
2023/08/21 12:43:10;;;;;;;1.98;1.60;;;29.10;99.90;;;;;;5034902;28;20282;-65
2023/08/21 12:45:39;;;;;;;1.63;1.52;;;29.10;99.90;;;;;;5033702;28;20711;-64
2023/08/21 12:48:08;;;;;;;2.13;1.60;;;29.00;99.90;;;;;;5043797;28;20700;-64
2023/08/21 12:50:36;;;;;;;1.50;1.40;;;28.90;99.90;;;;;;5041751;28;20234;-66
2023/08/21 12:53:05;;;;;;;2.13;1.45;;;28.80;99.90;;;;;;5043916;28;20593;-66
2023/08/21 12:55:34;;;;;;;2.15;1.60;;;28.80;99.90;;;;;;5042793;28;20215;-65